sensor_id;sensor_type;location;lat;lon;timestamp;pressure;altitude;pressure_sealevel;temperature;humidity
57574;BME280;63722;48.858;21.906;2023-03-13T00:01:39;98449.81;;;20.98;34.20
57574;BME280;63722;48.858;21.906;2023-03-13T00:04:05;98452.75;;;20.96;34.25
57574;BME280;63722;48.858;21.906;2023-03-13T00:06:33;98446.59;;;20.96;34.19
57574;BME280;63722;48.858;21.906;2023-03-13T00:09:00;98442.88;;;20.97;34.25
57574;BME280;63722;48.858;21.906;2023-03-13T00:11:26;98446.59;;;20.96;34.39
57574;BME280;63722;48.858;21.906;2023-03-13T00:13:56;98445.53;;;20.97;34.01
57574;BME280;63722;48.858;21.906;2023-03-13T00:16:22;98451.66;;;20.97;34.30
57574;BME280;63722;48.858;21.906;2023-03-13T00:18:50;98453.53;;;20.97;34.32
57574;BME280;63722;48.858;21.906;2023-03-13T00:21:17;98448.19;;;20.97;34.24
57574;BME280;63722;48.858;21.906;2023-03-13T00:23:43;98461.28;;;20.98;34.19
57574;BME280;63722;48.858;21.906;2023-03-13T00:26:11;98462.56;;;20.96;34.04
57574;BME280;63722;48.858;21.906;2023-03-13T00:28:37;98465.25;;;20.96;34.26
57574;BME280;63722;48.858;21.906;2023-03-13T00:33:33;98460.47;;;20.98;34.45
57574;BME280;63722;48.858;21.906;2023-03-13T00:36:00;98458.06;;;20.96;34.24
57574;BME280;63722;48.858;21.906;2023-03-13T00:38:27;98455.66;;;20.95;34.46
57574;BME280;63722;48.858;21.906;2023-03-13T00:41:03;98460.47;;;20.98;34.23
57574;BME280;63722;48.858;21.906;2023-03-13T00:43:29;98455.41;;;20.96;34.20
57574;BME280;63722;48.858;21.906;2023-03-13T00:45:55;98441.25;;;20.96;34.01
57574;BME280;63722;48.858;21.906;2023-03-13T00:48:21;98452.75;;;20.96;34.34
57574;BME280;63722;48.858;21.906;2023-03-13T00:50:47;98442.31;;;20.95;34.06
57574;BME280;63722;48.858;21.906;2023-03-13T00:53:12;98435.91;;;20.96;34.20
57574;BME280;63722;48.858;21.906;2023-03-13T00:55:38;98430.59;;;20.96;34.20
57574;BME280;63722;48.858;21.906;2023-03-13T00:58:03;98439.66;;;20.95;34.28
57574;BME280;63722;48.858;21.906;2023-03-13T01:00:28;98434.31;;;20.95;34.28
57574;BME280;63722;48.858;21.906;2023-03-13T01:02:54;98440.47;;;20.95;34.13
57574;BME280;63722;48.858;21.906;2023-03-13T01:05:19;98433.50;;;20.94;34.11
57574;BME280;63722;48.858;21.906;2023-03-13T01:07:44;98429.00;;;20.95;34.17
57574;BME280;63722;48.858;21.906;2023-03-13T01:10:10;98424.72;;;20.93;34.31
57574;BME280;63722;48.858;21.906;2023-03-13T01:12:35;98419.13;;;20.95;34.18
57574;BME280;63722;48.858;21.906;2023-03-13T01:15:01;98427.13;;;20.95;34.42
57574;BME280;63722;48.858;21.906;2023-03-13T01:17:26;98422.59;;;20.96;34.05
57574;BME280;63722;48.858;21.906;2023-03-13T01:19:55;98425.25;;;20.96;34.09
57574;BME280;63722;48.858;21.906;2023-03-13T01:22:20;98417.50;;;20.94;34.15
57574;BME280;63722;48.858;21.906;2023-03-13T01:24:45;98406.06;;;20.93;34.23
57574;BME280;63722;48.858;21.906;2023-03-13T01:27:14;98401.53;;;20.94;34.05
57574;BME280;63722;48.858;21.906;2023-03-13T01:29:39;98406.59;;;20.96;34.24
57574;BME280;63722;48.858;21.906;2023-03-13T01:32:05;98397.81;;;20.95;34.26
57574;BME280;63722;48.858;21.906;2023-03-13T01:34:31;98397.81;;;20.95;34.17
57574;BME280;63722;48.858;21.906;2023-03-13T01:36:56;98403.94;;;20.96;34.28
57574;BME280;63722;48.858;21.906;2023-03-13T01:39:21;98384.72;;;20.93;33.96
57574;BME280;63722;48.858;21.906;2023-03-13T01:41:47;98387.41;;;20.93;34.31
57574;BME280;63722;48.858;21.906;2023-03-13T01:44:25;98378.09;;;20.96;34.19
57574;BME280;63722;48.858;21.906;2023-03-13T01:46:51;98371.41;;;20.93;34.13
57574;BME280;63722;48.858;21.906;2023-03-13T01:49:17;98383.94;;;20.93;34.17
57574;BME280;63722;48.858;21.906;2023-03-13T01:51:52;98381.03;;;20.95;34.17
57574;BME280;63722;48.858;21.906;2023-03-13T01:54:36;98376.47;;;20.95;34.28
57574;BME280;63722;48.858;21.906;2023-03-13T02:00:23;98394.09;;;20.96;34.27
57574;BME280;63722;48.858;21.906;2023-03-13T02:02:54;98399.34;;;20.91;34.16
57574;BME280;63722;48.858;21.906;2023-03-13T02:05:22;98401.22;;;20.90;34.46
57574;BME280;63722;48.858;21.906;2023-03-13T02:07:56;98386.84;;;20.91;34.13
57574;BME280;63722;48.858;21.906;2023-03-13T02:10:24;98381.53;;;20.91;34.17
57574;BME280;63722;48.858;21.906;2023-03-13T02:12:50;98392.19;;;20.91;34.16
57574;BME280;63722;48.858;21.906;2023-03-13T02:15:20;98391.69;;;20.95;33.98
57574;BME280;63722;48.858;21.906;2023-03-13T02:17:48;98393.78;;;20.92;33.99
57574;BME280;63722;48.858;21.906;2023-03-13T02:20:17;98401.53;;;20.94;33.98
57574;BME280;63722;48.858;21.906;2023-03-13T02:23:03;98414.59;;;20.96;34.24
57574;BME280;63722;48.858;21.906;2023-03-13T02:28:03;98427.38;;;20.93;34.12
57574;BME280;63722;48.858;21.906;2023-03-13T02:30:30;98427.63;;;20.92;34.21
57574;BME280;63722;48.858;21.906;2023-03-13T02:32:56;98437.50;;;20.91;34.26
57574;BME280;63722;48.858;21.906;2023-03-13T02:35:22;98435.38;;;20.93;34.07
57574;BME280;63722;48.858;21.906;2023-03-13T02:37:54;98435.13;;;20.95;34.32
57574;BME280;63722;48.858;21.906;2023-03-13T02:40:21;98443.16;;;21.00;33.95
57574;BME280;63722;48.858;21.906;2023-03-13T02:42:49;98458.25;;;20.89;34.16
57574;BME280;63722;48.858;21.906;2023-03-13T02:45:16;98452.91;;;20.89;33.89
57574;BME280;63722;48.858;21.906;2023-03-13T02:47:42;98450.81;;;20.91;34.02
57574;BME280;63722;48.858;21.906;2023-03-13T02:50:08;98454.53;;;20.90;34.13
57574;BME280;63722;48.858;21.906;2023-03-13T02:52:44;98454.03;;;20.93;34.02
57574;BME280;63722;48.858;21.906;2023-03-13T02:55:14;98443.88;;;20.90;33.74
57574;BME280;63722;48.858;21.906;2023-03-13T02:57:42;98445.50;;;20.91;34.08
57574;BME280;63722;48.858;21.906;2023-03-13T03:00:08;98449.19;;;20.90;34.01
57574;BME280;63722;48.858;21.906;2023-03-13T03:02:37;98450.81;;;20.91;34.38
57574;BME280;63722;48.858;21.906;2023-03-13T03:05:02;98462.28;;;20.92;34.28
57574;BME280;63722;48.858;21.906;2023-03-13T03:07:28;98451.63;;;20.92;33.90
57574;BME280;63722;48.858;21.906;2023-03-13T03:09:54;98459.63;;;20.92;34.01
57574;BME280;63722;48.858;21.906;2023-03-13T03:12:19;98460.66;;;20.91;34.13
57574;BME280;63722;48.858;21.906;2023-03-13T03:14:45;98468.41;;;20.92;34.08
57574;BME280;63722;48.858;21.906;2023-03-13T03:17:10;98470.28;;;20.92;34.04
57574;BME280;63722;48.858;21.906;2023-03-13T03:19:36;98475.84;;;20.90;34.00
57574;BME280;63722;48.858;21.906;2023-03-13T03:22:01;98481.97;;;20.91;34.21
57574;BME280;63722;48.858;21.906;2023-03-13T03:24:27;98494.25;;;20.92;34.25
57574;BME280;63722;48.858;21.906;2023-03-13T03:26:52;98483.59;;;20.92;33.79
57574;BME280;63722;48.858;21.906;2023-03-13T03:29:17;98481.19;;;20.90;33.98
57574;BME280;63722;48.858;21.906;2023-03-13T03:31:43;98483.84;;;20.90;34.11
57574;BME280;63722;48.858;21.906;2023-03-13T03:34:08;98474.81;;;20.91;34.01
57574;BME280;63722;48.858;21.906;2023-03-13T03:36:33;98471.31;;;20.91;33.96
57574;BME280;63722;48.858;21.906;2023-03-13T03:38:59;98476.66;;;20.91;34.22
57574;BME280;63722;48.858;21.906;2023-03-13T03:41:24;98475.59;;;20.92;34.08
57574;BME280;63722;48.858;21.906;2023-03-13T03:43:50;98481.19;;;20.90;34.22
57574;BME280;63722;48.858;21.906;2023-03-13T03:46:15;98478.28;;;20.92;34.12
57574;BME280;63722;48.858;21.906;2023-03-13T03:48:41;98480.94;;;20.92;34.08
57574;BME280;63722;48.858;21.906;2023-03-13T03:51:07;98493.47;;;20.91;34.08
57574;BME280;63722;48.858;21.906;2023-03-13T03:53:33;98492.66;;;20.91;34.23
57574;BME280;63722;48.858;21.906;2023-03-13T03:55:58;98498.81;;;20.91;34.01
57574;BME280;63722;48.858;21.906;2023-03-13T03:58:24;98502.50;;;20.90;33.94
57574;BME280;63722;48.858;21.906;2023-03-13T04:00:49;98500.38;;;20.92;34.03
57574;BME280;63722;48.858;21.906;2023-03-13T04:03:15;98511.06;;;20.92;33.93
57574;BME280;63722;48.858;21.906;2023-03-13T04:05:41;98509.47;;;20.91;33.88
57574;BME280;63722;48.858;21.906;2023-03-13T04:08:07;98515.03;;;20.90;33.90
57574;BME280;63722;48.858;21.906;2023-03-13T04:10:33;98516.63;;;20.91;33.94
57574;BME280;63722;48.858;21.906;2023-03-13T04:12:58;98513.97;;;20.91;34.06
57574;BME280;63722;48.858;21.906;2023-03-13T04:15:24;98522.78;;;20.91;33.97
57574;BME280;63722;48.858;21.906;2023-03-13T04:17:49;98519.28;;;20.91;33.84
57574;BME280;63722;48.858;21.906;2023-03-13T04:20:15;98522.78;;;20.91;34.17
57574;BME280;63722;48.858;21.906;2023-03-13T04:22:40;98514.78;;;20.91;34.09
57574;BME280;63722;48.858;21.906;2023-03-13T04:25:06;98522.78;;;20.91;34.00
57574;BME280;63722;48.858;21.906;2023-03-13T04:27:33;98525.44;;;20.91;34.08
57574;BME280;63722;48.858;21.906;2023-03-13T04:29:59;98529.16;;;20.90;34.07
57574;BME280;63722;48.858;21.906;2023-03-13T04:32:24;98520.13;;;20.91;34.00
57574;BME280;63722;48.858;21.906;2023-03-13T04:34:50;98511.31;;;20.91;34.03
57574;BME280;63722;48.858;21.906;2023-03-13T04:37:15;98507.84;;;20.90;34.22
57574;BME280;63722;48.858;21.906;2023-03-13T04:39:40;98502.50;;;20.90;33.98
57574;BME280;63722;48.858;21.906;2023-03-13T04:42:06;98508.88;;;20.89;33.89
57574;BME280;63722;48.858;21.906;2023-03-13T04:44:31;98507.84;;;20.90;33.83
57574;BME280;63722;48.858;21.906;2023-03-13T04:46:57;98520.91;;;20.92;34.15
57574;BME280;63722;48.858;21.906;2023-03-13T04:49:23;98521.16;;;20.90;34.16
57574;BME280;63722;48.858;21.906;2023-03-13T04:51:48;98525.44;;;20.91;34.04
57574;BME280;63722;48.858;21.906;2023-03-13T04:54:13;98520.91;;;20.92;33.93
57574;BME280;63722;48.858;21.906;2023-03-13T04:56:39;98523.84;;;20.90;33.69
57574;BME280;63722;48.858;21.906;2023-03-13T04:59:04;98520.38;;;20.90;34.04
57574;BME280;63722;48.858;21.906;2023-03-13T05:01:30;98523.84;;;20.90;33.97
57574;BME280;63722;48.858;21.906;2023-03-13T05:03:56;98522.78;;;20.91;33.81
57574;BME280;63722;48.858;21.906;2023-03-13T05:06:21;98533.44;;;20.91;33.93
57574;BME280;63722;48.858;21.906;2023-03-13T05:08:47;98533.44;;;20.91;33.89
57574;BME280;63722;48.858;21.906;2023-03-13T05:11:12;98541.44;;;20.91;34.00
57574;BME280;63722;48.858;21.906;2023-03-13T05:13:38;98537.16;;;20.90;33.67
57574;BME280;63722;48.858;21.906;2023-03-13T05:16:03;98533.44;;;20.91;33.97
57574;BME280;63722;48.858;21.906;2023-03-13T05:18:29;98534.00;;;20.93;33.90
57574;BME280;63722;48.858;21.906;2023-03-13T05:20:54;98538.03;;;20.96;34.01
57574;BME280;63722;48.858;21.906;2023-03-13T05:23:20;98540.44;;;20.98;33.83
57574;BME280;63722;48.858;21.906;2023-03-13T05:25:45;98543.66;;;21.00;33.92
57574;BME280;63722;48.858;21.906;2023-03-13T05:28:10;98551.41;;;21.01;33.95
57574;BME280;63722;48.858;21.906;2023-03-13T05:30:36;98547.44;;;21.04;33.89
57574;BME280;63722;48.858;21.906;2023-03-13T05:33:01;98541.88;;;21.05;33.85
57574;BME280;63722;48.858;21.906;2023-03-13T05:35:27;98554.94;;;21.07;34.04
57574;BME280;63722;48.858;21.906;2023-03-13T05:37:52;98569.13;;;21.13;33.59
57574;BME280;63722;48.858;21.906;2023-03-13T05:40:18;98564.59;;;21.13;33.73
57574;BME280;63722;48.858;21.906;2023-03-13T05:42:44;98557.97;;;21.16;33.63
57574;BME280;63722;48.858;21.906;2023-03-13T05:45:10;98567.31;;;21.18;33.73
57574;BME280;63722;48.858;21.906;2023-03-13T05:47:35;98569.50;;;21.21;33.67
57574;BME280;63722;48.858;21.906;2023-03-13T05:50:03;98571.91;;;21.23;33.76
57574;BME280;63722;48.858;21.906;2023-03-13T05:52:29;98565.16;;;21.15;33.60
57574;BME280;63722;48.858;21.906;2023-03-13T05:54:54;98568.78;;;21.04;31.17
57574;BME280;63722;48.858;21.906;2023-03-13T05:57:19;98553.97;;;20.69;31.74
57574;BME280;63722;48.858;21.906;2023-03-13T05:59:45;98560.84;;;20.87;32.14
57574;BME280;63722;48.858;21.906;2023-03-13T06:02:10;98557.25;;;20.98;32.59
57574;BME280;63722;48.858;21.906;2023-03-13T06:04:36;98573.63;;;21.07;32.89
57574;BME280;63722;48.858;21.906;2023-03-13T06:07:01;98560.88;;;21.14;33.07
57574;BME280;63722;48.858;21.906;2023-03-13T06:09:27;98563.09;;;21.22;33.22
57574;BME280;63722;48.858;21.906;2023-03-13T06:11:52;98562.91;;;21.29;33.46
57574;BME280;63722;48.858;21.906;2023-03-13T06:14:18;98567.75;;;21.32;33.49
57574;BME280;63722;48.858;21.906;2023-03-13T06:16:43;98562.69;;;21.36;33.49
57574;BME280;63722;48.858;21.906;2023-03-13T06:19:09;98577.41;;;21.38;33.58
57574;BME280;63722;48.858;21.906;2023-03-13T06:21:34;98583.28;;;21.40;33.79
57574;BME280;63722;48.858;21.906;2023-03-13T06:24:00;98579.88;;;21.45;33.51
57574;BME280;63722;48.858;21.906;2023-03-13T06:26:25;98579.59;;;21.46;33.72
57574;BME280;63722;48.858;21.906;2023-03-13T06:28:51;98589.50;;;21.46;33.83
57574;BME280;63722;48.858;21.906;2023-03-13T06:31:16;98589.25;;;21.48;33.91
57574;BME280;63722;48.858;21.906;2023-03-13T06:33:42;98587.13;;;21.50;34.18
57574;BME280;63722;48.858;21.906;2023-03-13T06:36:08;98590.59;;;21.50;34.05
57574;BME280;63722;48.858;21.906;2023-03-13T06:38:33;98583.97;;;21.53;33.64
57574;BME280;63722;48.858;21.906;2023-03-13T06:40:59;98592.22;;;21.51;33.89
57574;BME280;63722;48.858;21.906;2023-03-13T06:43:25;98595.16;;;21.50;33.94
57574;BME280;63722;48.858;21.906;2023-03-13T06:45:50;98584.94;;;21.46;34.05
57574;BME280;63722;48.858;21.906;2023-03-13T06:48:16;98587.88;;;21.45;33.63
57574;BME280;63722;48.858;21.906;2023-03-13T06:50:42;98589.50;;;21.46;33.97
57574;BME280;63722;48.858;21.906;2023-03-13T06:53:14;98587.88;;;21.45;34.08
57574;BME280;63722;48.858;21.906;2023-03-13T06:55:40;98585.75;;;21.47;34.12
57574;BME280;63722;48.858;21.906;2023-03-13T06:58:06;98587.94;;;21.50;34.48
57574;BME280;63722;48.858;21.906;2023-03-13T07:00:31;98594.81;;;21.46;34.83
57574;BME280;63722;48.858;21.906;2023-03-13T07:02:58;98598.53;;;21.45;34.71
57574;BME280;63722;48.858;21.906;2023-03-13T07:05:23;98587.75;;;21.57;34.67
57574;BME280;63722;48.858;21.906;2023-03-13T07:07:49;98595.75;;;21.57;34.79
57574;BME280;63722;48.858;21.906;2023-03-13T07:10:14;98593.88;;;21.57;34.72
57574;BME280;63722;48.858;21.906;2023-03-13T07:12:40;98584.25;;;21.56;34.66
57574;BME280;63722;48.858;21.906;2023-03-13T07:15:06;98596.06;;;21.60;34.72
57574;BME280;63722;48.858;21.906;2023-03-13T07:17:31;98590.22;;;21.63;34.54
57574;BME280;63722;48.858;21.906;2023-03-13T07:19:57;98593.13;;;21.62;34.64
57574;BME280;63722;48.858;21.906;2023-03-13T07:22:22;98597.66;;;21.61;34.63
57574;BME280;63722;48.858;21.906;2023-03-13T07:24:48;98593.94;;;21.62;34.35
57574;BME280;63722;48.858;21.906;2023-03-13T07:27:13;98587.00;;;21.61;34.62
57574;BME280;63722;48.858;21.906;2023-03-13T07:29:38;98593.38;;;21.60;34.89
57574;BME280;63722;48.858;21.906;2023-03-13T07:32:04;98595.19;;;21.55;34.90
57574;BME280;63722;48.858;21.906;2023-03-13T07:34:30;98590.72;;;21.60;34.99
57574;BME280;63722;48.858;21.906;2023-03-13T07:36:55;98597.66;;;21.61;34.71
57574;BME280;63722;48.858;21.906;2023-03-13T07:39:21;98606.22;;;21.63;34.89
57574;BME280;63722;48.858;21.906;2023-03-13T07:41:46;98603.06;;;21.67;34.87
57574;BME280;63722;48.858;21.906;2023-03-13T07:44:11;98592.13;;;21.68;34.83
57574;BME280;63722;48.858;21.906;2023-03-13T07:46:37;98592.41;;;21.72;34.74
57574;BME280;63722;48.858;21.906;2023-03-13T07:49:02;98601.53;;;21.76;34.88
57574;BME280;63722;48.858;21.906;2023-03-13T07:51:28;98604.72;;;21.73;34.95
57574;BME280;63722;48.858;21.906;2023-03-13T07:53:53;98604.91;;;21.66;35.20
57574;BME280;63722;48.858;21.906;2023-03-13T07:56:20;98594.03;;;21.73;35.25
57574;BME280;63722;48.858;21.906;2023-03-13T07:58:46;98583.38;;;21.78;35.09
57574;BME280;63722;48.858;21.906;2023-03-13T08:01:20;98577.00;;;21.79;35.33
57574;BME280;63722;48.858;21.906;2023-03-13T08:03:46;98570.38;;;21.81;35.22
57574;BME280;63722;48.858;21.906;2023-03-13T08:06:17;98580.53;;;21.85;35.26
57574;BME280;63722;48.858;21.906;2023-03-13T08:08:44;98569.84;;;21.85;35.19
57574;BME280;63722;48.858;21.906;2023-03-13T08:11:12;98563.25;;;21.92;35.41
57574;BME280;63722;48.858;21.906;2023-03-13T08:13:38;98556.78;;;21.88;35.30
57574;BME280;63722;48.858;21.906;2023-03-13T08:18:31;98548.28;;;21.91;35.29
57574;BME280;63722;48.858;21.906;2023-03-13T08:21:22;98548.03;;;21.93;35.54
57574;BME280;63722;48.858;21.906;2023-03-13T08:23:48;98536.53;;;21.92;35.49
57574;BME280;63722;48.858;21.906;2023-03-13T08:26:18;98522.38;;;21.92;35.57
57574;BME280;63722;48.858;21.906;2023-03-13T08:28:45;98522.19;;;22.04;35.75
57574;BME280;63722;48.858;21.906;2023-03-13T08:31:13;98519.00;;;22.07;35.42
57574;BME280;63722;48.858;21.906;2023-03-13T08:33:41;98522.22;;;22.09;35.90
57574;BME280;63722;48.858;21.906;2023-03-13T08:36:10;98513.44;;;22.13;35.78
57574;BME280;63722;48.858;21.906;2023-03-13T08:38:36;98507.31;;;22.13;36.02
57574;BME280;63722;48.858;21.906;2023-03-13T08:41:02;98512.16;;;22.21;36.00
57574;BME280;63722;48.858;21.906;2023-03-13T08:43:28;98507.31;;;22.18;36.12
57574;BME280;63722;48.858;21.906;2023-03-13T08:45:54;98501.97;;;22.18;36.08
57574;BME280;63722;48.858;21.906;2023-03-13T08:48:20;98503.09;;;22.27;36.43
57574;BME280;63722;48.858;21.906;2023-03-13T08:50:45;98496.13;;;22.21;36.05
57574;BME280;63722;48.858;21.906;2023-03-13T08:53:11;98485.69;;;22.20;36.33
57574;BME280;63722;48.858;21.906;2023-03-13T08:55:36;98489.25;;;22.30;36.20
57574;BME280;63722;48.858;21.906;2023-03-13T08:58:02;98483.44;;;22.39;36.43
57574;BME280;63722;48.858;21.906;2023-03-13T09:00:31;98492.25;;;22.39;36.84
57574;BME280;63722;48.858;21.906;2023-03-13T09:02:57;98482.91;;;22.42;36.92
57574;BME280;63722;48.858;21.906;2023-03-13T09:05:22;98477.59;;;22.47;37.17
57574;BME280;63722;48.858;21.906;2023-03-13T09:07:47;98473.28;;;22.46;37.37
57574;BME280;63722;48.858;21.906;2023-03-13T09:10:14;98472.50;;;22.45;37.90
57574;BME280;63722;48.858;21.906;2023-03-13T09:12:40;98467.41;;;22.39;38.04
57574;BME280;63722;48.858;21.906;2023-03-13T09:15:06;98469.81;;;22.40;38.24
57574;BME280;63722;48.858;21.906;2023-03-13T09:17:32;98465.59;;;22.49;38.46
57574;BME280;63722;48.858;21.906;2023-03-13T09:19:57;98464.75;;;22.49;37.95
57574;BME280;63722;48.858;21.906;2023-03-13T09:22:22;98470.63;;;22.41;37.78
57574;BME280;63722;48.858;21.906;2023-03-13T09:24:48;98470.09;;;22.44;37.68
57574;BME280;63722;48.858;21.906;2023-03-13T09:27:13;98472.75;;;22.39;37.66
57574;BME280;63722;48.858;21.906;2023-03-13T09:29:39;98459.94;;;22.41;37.91
57574;BME280;63722;48.858;21.906;2023-03-13T09:32:06;98469.28;;;22.43;37.73
57574;BME280;63722;48.858;21.906;2023-03-13T09:34:33;98468.19;;;22.39;37.56
57574;BME280;63722;48.858;21.906;2023-03-13T09:36:59;98465.28;;;22.41;37.94
57574;BME280;63722;48.858;21.906;2023-03-13T09:39:24;98461.81;;;22.45;37.64
57574;BME280;63722;48.858;21.906;2023-03-13T09:41:56;98462.59;;;22.46;37.44
57574;BME280;63722;48.858;21.906;2023-03-13T09:44:34;98459.94;;;22.46;37.45
57574;BME280;63722;48.858;21.906;2023-03-13T09:47:07;98460.50;;;22.48;37.36
57574;BME280;63722;48.858;21.906;2023-03-13T09:52:24;98448.19;;;22.42;37.72
57574;BME280;63722;48.858;21.906;2023-03-13T09:58:05;98459.94;;;22.41;37.72
57574;BME280;63722;48.858;21.906;2023-03-13T10:00:38;98453.22;;;22.38;37.90
57574;BME280;63722;48.858;21.906;2023-03-13T10:05:37;98447.09;;;22.43;38.17
57574;BME280;63722;48.858;21.906;2023-03-13T10:08:19;98443.63;;;22.42;38.24
57574;BME280;63722;48.858;21.906;2023-03-13T10:13:50;98429.47;;;22.42;38.04
57574;BME280;63722;48.858;21.906;2023-03-13T10:16:24;98428.13;;;22.44;37.93
57574;BME280;63722;48.858;21.906;2023-03-13T10:18:54;98427.34;;;22.44;37.84
57574;BME280;63722;48.858;21.906;2023-03-13T10:21:22;98423.88;;;22.43;37.97
57574;BME280;63722;48.858;21.906;2023-03-13T10:23:54;98420.91;;;22.40;38.18
57574;BME280;63722;48.858;21.906;2023-03-13T10:26:29;98430.28;;;22.42;38.07
57574;BME280;63722;48.858;21.906;2023-03-13T10:29:01;98426.28;;;22.45;37.84
57574;BME280;63722;48.858;21.906;2023-03-13T10:31:36;98413.97;;;22.44;38.00
57574;BME280;63722;48.858;21.906;2023-03-13T10:34:10;98425.78;;;22.53;37.91
57574;BME280;63722;48.858;21.906;2023-03-13T10:36:45;98427.66;;;22.58;38.03
57574;BME280;63722;48.858;21.906;2023-03-13T10:39:18;98407.34;;;22.57;37.88
57574;BME280;63722;48.858;21.906;2023-03-13T10:41:44;98405.75;;;22.61;37.94
57574;BME280;63722;48.858;21.906;2023-03-13T10:44:31;98423.09;;;22.58;38.03
57574;BME280;63722;48.858;21.906;2023-03-13T10:47:00;98423.38;;;22.57;38.13
57574;BME280;63722;48.858;21.906;2023-03-13T10:49:27;98428.44;;;22.58;38.11
57574;BME280;63722;48.858;21.906;2023-03-13T10:52:02;98417.75;;;22.58;38.11
57574;BME280;63722;48.858;21.906;2023-03-13T10:54:33;98411.09;;;22.61;38.04
57574;BME280;63722;48.858;21.906;2023-03-13T10:59:38;98411.94;;;22.71;37.97
57574;BME280;63722;48.858;21.906;2023-03-13T11:02:33;98402.84;;;22.73;38.22
57574;BME280;63722;48.858;21.906;2023-03-13T11:04:59;98408.19;;;22.73;38.26
57574;BME280;63722;48.858;21.906;2023-03-13T11:07:34;98405.47;;;22.62;38.81
57574;BME280;63722;48.858;21.906;2023-03-13T11:12:51;98397.22;;;22.69;38.55
57574;BME280;63722;48.858;21.906;2023-03-13T11:15:24;98391.06;;;22.68;38.65
57574;BME280;63722;48.858;21.906;2023-03-13T11:20:37;98400.69;;;22.75;38.74
57574;BME280;63722;48.858;21.906;2023-03-13T11:23:19;98389.75;;;22.76;38.89
57574;BME280;63722;48.858;21.906;2023-03-13T11:28:57;98390.28;;;22.73;38.89
57574;BME280;63722;48.858;21.906;2023-03-13T11:31:43;98390.00;;;22.75;39.15
57574;BME280;63722;48.858;21.906;2023-03-13T11:37:02;98379.28;;;22.64;39.33
57574;BME280;63722;48.858;21.906;2023-03-13T11:51:01;98346.16;;;22.65;39.24
57574;BME280;63722;48.858;21.906;2023-03-13T11:54:14;98352.84;;;22.68;39.14
57574;BME280;63722;48.858;21.906;2023-03-13T12:00:05;98338.16;;;22.65;39.20
57574;BME280;63722;48.858;21.906;2023-03-13T12:02:35;98313.81;;;22.67;39.45
57574;BME280;63722;48.858;21.906;2023-03-13T12:05:07;98322.66;;;22.73;39.23
57574;BME280;63722;48.858;21.906;2023-03-13T12:07:35;98320.78;;;22.68;39.43
57574;BME280;63722;48.858;21.906;2023-03-13T12:10:21;98323.16;;;22.64;39.44
57574;BME280;63722;48.858;21.906;2023-03-13T12:12:58;98322.38;;;22.69;39.17
57574;BME280;63722;48.858;21.906;2023-03-13T12:15:28;98319.16;;;22.67;39.38
57574;BME280;63722;48.858;21.906;2023-03-13T12:18:06;98308.22;;;22.68;39.38
57574;BME280;63722;48.858;21.906;2023-03-13T12:21:31;98320.50;;;22.75;39.41
57574;BME280;63722;48.858;21.906;2023-03-13T12:23:52;98315.16;;;22.75;39.27
57574;BME280;63722;48.858;21.906;2023-03-13T12:26:44;98305.53;;;22.68;39.41
57574;BME280;63722;48.858;21.906;2023-03-13T12:31:57;98289.78;;;22.77;39.37
57574;BME280;63722;48.858;21.906;2023-03-13T12:37:27;98299.13;;;22.85;39.22
57574;BME280;63722;48.858;21.906;2023-03-13T12:40:10;98295.13;;;22.82;39.37
57574;BME280;63722;48.858;21.906;2023-03-13T12:43:03;98281.75;;;22.77;39.65
57574;BME280;63722;48.858;21.906;2023-03-13T12:45:31;98284.69;;;22.76;39.64
57574;BME280;63722;48.858;21.906;2023-03-13T12:58:44;98303.41;;;22.76;39.73
57574;BME280;63722;48.858;21.906;2023-03-13T13:02:01;98293.25;;;22.73;39.66
57574;BME280;63722;48.858;21.906;2023-03-13T13:04:11;98297.78;;;22.72;39.78
57574;BME280;63722;48.858;21.906;2023-03-13T13:07:05;98299.66;;;22.71;39.73
57574;BME280;63722;48.858;21.906;2023-03-13T13:09:35;98314.63;;;22.78;39.67
57574;BME280;63722;48.858;21.906;2023-03-13T13:12:19;98309.28;;;22.73;39.83
57574;BME280;63722;48.858;21.906;2023-03-13T13:17:20;98308.22;;;22.74;39.87
57574;BME280;63722;48.858;21.906;2023-03-13T13:19:48;98303.16;;;22.77;39.84
57574;BME280;63722;48.858;21.906;2023-03-13T13:32:40;98274.00;;;22.70;39.92
57574;BME280;63722;48.858;21.906;2023-03-13T13:37:34;98264.63;;;22.78;39.94
57574;BME280;63722;48.858;21.906;2023-03-13T13:42:55;98259.56;;;22.77;39.86
57574;BME280;63722;48.858;21.906;2023-03-13T13:45:34;98242.75;;;22.71;39.80
57574;BME280;63722;48.858;21.906;2023-03-13T13:53:54;98249.41;;;22.79;39.99
57574;BME280;63722;48.858;21.906;2023-03-13T14:01:28;98235.50;;;22.82;40.03
57574;BME280;63722;48.858;21.906;2023-03-13T14:03:59;98238.19;;;22.77;40.16
57574;BME280;63722;48.858;21.906;2023-03-13T14:06:31;98230.16;;;22.71;39.99
57574;BME280;63722;48.858;21.906;2023-03-13T14:09:16;98222.94;;;22.72;40.21
57574;BME280;63722;48.858;21.906;2023-03-13T14:11:49;98230.69;;;22.68;40.27
57574;BME280;63722;48.858;21.906;2023-03-13T14:14:15;98224.81;;;22.77;40.31
57574;BME280;63722;48.858;21.906;2023-03-13T14:16:50;98230.41;;;22.75;40.49
57574;BME280;63722;48.858;21.906;2023-03-13T14:22:18;98220.81;;;22.79;40.53
57574;BME280;63722;48.858;21.906;2023-03-13T14:24:55;98219.47;;;22.71;40.27
57574;BME280;63722;48.858;21.906;2023-03-13T14:27:22;98216.28;;;22.69;40.30
57574;BME280;63722;48.858;21.906;2023-03-13T14:30:01;98224.28;;;22.75;40.15
57574;BME280;63722;48.858;21.906;2023-03-13T14:32:27;98217.06;;;22.70;40.44
57574;BME280;63722;48.858;21.906;2023-03-13T14:34:53;98220.53;;;22.70;40.26
57574;BME280;63722;48.858;21.906;2023-03-13T14:37:51;98213.59;;;22.75;40.22